sensor_id;sensor_type;location;lat;lon;timestamp;P1;durP1;ratioP1;P2;durP2;ratioP2
61569;SDS011;47462;59.172;17.196;2022-07-29T00:00:26;0.32;;;0.30;;
61569;SDS011;47462;59.172;17.196;2022-07-29T00:02:52;0.37;;;0.30;;
61569;SDS011;47462;59.172;17.196;2022-07-29T00:05:17;1.97;;;0.40;;
61569;SDS011;47462;59.172;17.196;2022-07-29T00:07:42;1.17;;;0.55;;
61569;SDS011;47462;59.172;17.196;2022-07-29T00:10:08;0.90;;;0.50;;
61569;SDS011;47462;59.172;17.196;2022-07-29T00:12:33;0.30;;;0.30;;
61569;SDS011;47462;59.172;17.196;2022-07-29T00:14:59;0.60;;;0.40;;
61569;SDS011;47462;59.172;17.196;2022-07-29T00:17:24;0.45;;;0.30;;
61569;SDS011;47462;59.172;17.196;2022-07-29T00:19:50;0.75;;;0.38;;
61569;SDS011;47462;59.172;17.196;2022-07-29T00:22:16;0.32;;;0.30;;
61569;SDS011;47462;59.172;17.196;2022-07-29T00:24:41;0.68;;;0.30;;
61569;SDS011;47462;59.172;17.196;2022-07-29T00:27:07;0.20;;;0.20;;
61569;SDS011;47462;59.172;17.196;2022-07-29T00:29:32;0.43;;;0.32;;
61569;SDS011;47462;59.172;17.196;2022-07-29T00:31:58;0.50;;;0.30;;
61569;SDS011;47462;59.172;17.196;2022-07-29T00:34:23;1.23;;;0.75;;
61569;SDS011;47462;59.172;17.196;2022-07-29T00:37:07;0.52;;;0.38;;
61569;SDS011;47462;59.172;17.196;2022-07-29T00:39:33;1.23;;;0.53;;
61569;SDS011;47462;59.172;17.196;2022-07-29T00:41:58;0.82;;;0.30;;
61569;SDS011;47462;59.172;17.196;2022-07-29T00:44:23;0.20;;;0.20;;
61569;SDS011;47462;59.172;17.196;2022-07-29T00:46:49;0.60;;;0.30;;
61569;SDS011;47462;59.172;17.196;2022-07-29T00:49:14;0.47;;;0.28;;
61569;SDS011;47462;59.172;17.196;2022-07-29T00:51:40;0.70;;;0.40;;
61569;SDS011;47462;59.172;17.196;2022-07-29T00:54:05;1.20;;;0.28;;
61569;SDS011;47462;59.172;17.196;2022-07-29T00:56:32;1.02;;;0.50;;
61569;SDS011;47462;59.172;17.196;2022-07-29T01:01:24;0.40;;;0.40;;
61569;SDS011;47462;59.172;17.196;2022-07-29T01:03:50;1.13;;;0.40;;
61569;SDS011;47462;59.172;17.196;2022-07-29T01:06:16;1.50;;;0.50;;
61569;SDS011;47462;59.172;17.196;2022-07-29T01:08:43;0.70;;;0.22;;
61569;SDS011;47462;59.172;17.196;2022-07-29T01:11:10;1.17;;;0.50;;
61569;SDS011;47462;59.172;17.196;2022-07-29T01:13:36;1.80;;;0.35;;
61569;SDS011;47462;59.172;17.196;2022-07-29T01:16:13;1.10;;;0.45;;
61569;SDS011;47462;59.172;17.196;2022-07-29T01:18:44;0.40;;;0.30;;
61569;SDS011;47462;59.172;17.196;2022-07-29T01:26:59;0.40;;;0.30;;
61569;SDS011;47462;59.172;17.196;2022-07-29T01:29:35;1.35;;;0.50;;
61569;SDS011;47462;59.172;17.196;2022-07-29T01:32:18;0.40;;;0.40;;
61569;SDS011;47462;59.172;17.196;2022-07-29T01:40:01;0.65;;;0.30;;
61569;SDS011;47462;59.172;17.196;2022-07-29T01:42:34;3.17;;;0.60;;
61569;SDS011;47462;59.172;17.196;2022-07-29T01:47:38;0.30;;;0.30;;
61569;SDS011;47462;59.172;17.196;2022-07-29T01:50:08;0.68;;;0.35;;
61569;SDS011;47462;59.172;17.196;2022-07-29T01:52:39;1.45;;;0.52;;
61569;SDS011;47462;59.172;17.196;2022-07-29T01:55:13;1.27;;;0.40;;
61569;SDS011;47462;59.172;17.196;2022-07-29T01:57:40;0.50;;;0.50;;
61569;SDS011;47462;59.172;17.196;2022-07-29T02:00:09;0.80;;;0.40;;
61569;SDS011;47462;59.172;17.196;2022-07-29T02:02:36;0.32;;;0.32;;
61569;SDS011;47462;59.172;17.196;2022-07-29T02:05:04;1.95;;;0.30;;
61569;SDS011;47462;59.172;17.196;2022-07-29T02:07:32;0.80;;;0.40;;
61569;SDS011;47462;59.172;17.196;2022-07-29T02:09:59;1.25;;;0.80;;
61569;SDS011;47462;59.172;17.196;2022-07-29T02:12:28;0.88;;;0.40;;
61569;SDS011;47462;59.172;17.196;2022-07-29T02:14:56;1.00;;;0.40;;
61569;SDS011;47462;59.172;17.196;2022-07-29T02:17:26;0.68;;;0.45;;
61569;SDS011;47462;59.172;17.196;2022-07-29T02:19:57;0.50;;;0.40;;
61569;SDS011;47462;59.172;17.196;2022-07-29T02:22:25;1.63;;;0.50;;
61569;SDS011;47462;59.172;17.196;2022-07-29T02:24:53;0.32;;;0.32;;
61569;SDS011;47462;59.172;17.196;2022-07-29T02:27:20;0.85;;;0.50;;
61569;SDS011;47462;59.172;17.196;2022-07-29T02:29:47;2.47;;;0.55;;
61569;SDS011;47462;59.172;17.196;2022-07-29T02:32:15;0.57;;;0.40;;
61569;SDS011;47462;59.172;17.196;2022-07-29T02:34:42;0.50;;;0.50;;
61569;SDS011;47462;59.172;17.196;2022-07-29T02:37:10;3.88;;;0.80;;
61569;SDS011;47462;59.172;17.196;2022-07-29T02:39:37;0.40;;;0.40;;
61569;SDS011;47462;59.172;17.196;2022-07-29T02:42:07;0.40;;;0.30;;
61569;SDS011;47462;59.172;17.196;2022-07-29T02:44:35;0.30;;;0.30;;
61569;SDS011;47462;59.172;17.196;2022-07-29T02:47:10;1.30;;;0.45;;
61569;SDS011;47462;59.172;17.196;2022-07-29T02:55:19;1.00;;;0.30;;
61569;SDS011;47462;59.172;17.196;2022-07-29T03:00:22;1.67;;;0.47;;
61569;SDS011;47462;59.172;17.196;2022-07-29T03:02:53;0.38;;;0.30;;
61569;SDS011;47462;59.172;17.196;2022-07-29T03:05:20;0.82;;;0.25;;
61569;SDS011;47462;59.172;17.196;2022-07-29T03:07:49;2.58;;;0.50;;
61569;SDS011;47462;59.172;17.196;2022-07-29T03:10:19;0.40;;;0.30;;
61569;SDS011;47462;59.172;17.196;2022-07-29T03:12:46;4.93;;;0.50;;
61569;SDS011;47462;59.172;17.196;2022-07-29T03:15:13;1.48;;;0.40;;
61569;SDS011;47462;59.172;17.196;2022-07-29T03:17:39;0.40;;;0.40;;
61569;SDS011;47462;59.172;17.196;2022-07-29T03:20:06;1.15;;;0.45;;
61569;SDS011;47462;59.172;17.196;2022-07-29T03:22:33;0.60;;;0.50;;
61569;SDS011;47462;59.172;17.196;2022-07-29T03:25:08;0.55;;;0.52;;
61569;SDS011;47462;59.172;17.196;2022-07-29T03:27:38;1.60;;;0.52;;
61569;SDS011;47462;59.172;17.196;2022-07-29T03:30:04;0.43;;;0.43;;
61569;SDS011;47462;59.172;17.196;2022-07-29T03:32:31;0.80;;;0.50;;
61569;SDS011;47462;59.172;17.196;2022-07-29T03:34:56;2.05;;;0.63;;
61569;SDS011;47462;59.172;17.196;2022-07-29T03:37:21;1.55;;;0.50;;
61569;SDS011;47462;59.172;17.196;2022-07-29T03:39:47;1.77;;;0.50;;
61569;SDS011;47462;59.172;17.196;2022-07-29T03:42:15;0.90;;;0.63;;
61569;SDS011;47462;59.172;17.196;2022-07-29T03:44:45;0.60;;;0.40;;
61569;SDS011;47462;59.172;17.196;2022-07-29T03:47:13;1.95;;;0.45;;
61569;SDS011;47462;59.172;17.196;2022-07-29T03:49:40;0.40;;;0.40;;
61569;SDS011;47462;59.172;17.196;2022-07-29T03:52:07;1.52;;;0.80;;
61569;SDS011;47462;59.172;17.196;2022-07-29T03:54:33;0.93;;;0.40;;
61569;SDS011;47462;59.172;17.196;2022-07-29T03:56:59;1.48;;;0.40;;
61569;SDS011;47462;59.172;17.196;2022-07-29T03:59:26;0.93;;;0.20;;
61569;SDS011;47462;59.172;17.196;2022-07-29T04:01:52;0.30;;;0.30;;
61569;SDS011;47462;59.172;17.196;2022-07-29T04:04:21;0.30;;;0.30;;
61569;SDS011;47462;59.172;17.196;2022-07-29T04:06:47;1.60;;;0.52;;
61569;SDS011;47462;59.172;17.196;2022-07-29T04:09:12;1.85;;;0.35;;
61569;SDS011;47462;59.172;17.196;2022-07-29T04:11:38;0.75;;;0.40;;
61569;SDS011;47462;59.172;17.196;2022-07-29T04:14:05;0.55;;;0.40;;
61569;SDS011;47462;59.172;17.196;2022-07-29T04:16:30;4.28;;;0.52;;
61569;SDS011;47462;59.172;17.196;2022-07-29T04:18:56;0.82;;;0.40;;
61569;SDS011;47462;59.172;17.196;2022-07-29T04:21:22;1.75;;;0.43;;
61569;SDS011;47462;59.172;17.196;2022-07-29T04:23:47;0.60;;;0.50;;
61569;SDS011;47462;59.172;17.196;2022-07-29T04:26:16;0.55;;;0.50;;
61569;SDS011;47462;59.172;17.196;2022-07-29T04:28:42;3.00;;;0.50;;
61569;SDS011;47462;59.172;17.196;2022-07-29T04:31:08;0.43;;;0.40;;
61569;SDS011;47462;59.172;17.196;2022-07-29T04:33:34;0.57;;;0.40;;
61569;SDS011;47462;59.172;17.196;2022-07-29T04:36:00;2.05;;;0.30;;
61569;SDS011;47462;59.172;17.196;2022-07-29T04:38:26;2.47;;;0.40;;
61569;SDS011;47462;59.172;17.196;2022-07-29T04:40:51;0.35;;;0.30;;
61569;SDS011;47462;59.172;17.196;2022-07-29T04:43:17;0.68;;;0.40;;
61569;SDS011;47462;59.172;17.196;2022-07-29T04:45:42;0.75;;;0.40;;
61569;SDS011;47462;59.172;17.196;2022-07-29T04:48:08;1.15;;;0.60;;
61569;SDS011;47462;59.172;17.196;2022-07-29T04:50:34;1.08;;;0.55;;
61569;SDS011;47462;59.172;17.196;2022-07-29T04:52:59;1.30;;;0.50;;
61569;SDS011;47462;59.172;17.196;2022-07-29T04:57:51;1.30;;;0.50;;
61569;SDS011;47462;59.172;17.196;2022-07-29T05:00:17;2.22;;;0.43;;
61569;SDS011;47462;59.172;17.196;2022-07-29T05:02:42;1.05;;;0.60;;
61569;SDS011;47462;59.172;17.196;2022-07-29T05:05:08;1.20;;;0.50;;
61569;SDS011;47462;59.172;17.196;2022-07-29T05:07:33;3.33;;;0.60;;
61569;SDS011;47462;59.172;17.196;2022-07-29T05:09:59;2.47;;;0.45;;
61569;SDS011;47462;59.172;17.196;2022-07-29T05:12:24;1.48;;;0.60;;
61569;SDS011;47462;59.172;17.196;2022-07-29T05:14:51;2.10;;;0.50;;
61569;SDS011;47462;59.172;17.196;2022-07-29T05:17:16;0.57;;;0.40;;
61569;SDS011;47462;59.172;17.196;2022-07-29T05:19:43;1.40;;;0.40;;
61569;SDS011;47462;59.172;17.196;2022-07-29T05:22:08;1.73;;;0.60;;
61569;SDS011;47462;59.172;17.196;2022-07-29T05:24:34;1.33;;;0.47;;
61569;SDS011;47462;59.172;17.196;2022-07-29T05:26:59;0.70;;;0.55;;
61569;SDS011;47462;59.172;17.196;2022-07-29T05:29:25;1.05;;;0.40;;
61569;SDS011;47462;59.172;17.196;2022-07-29T05:34:18;1.20;;;0.40;;
61569;SDS011;47462;59.172;17.196;2022-07-29T05:36:44;1.63;;;0.50;;
61569;SDS011;47462;59.172;17.196;2022-07-29T05:39:10;0.75;;;0.40;;
61569;SDS011;47462;59.172;17.196;2022-07-29T05:41:38;0.85;;;0.50;;
61569;SDS011;47462;59.172;17.196;2022-07-29T05:44:03;1.13;;;0.50;;
61569;SDS011;47462;59.172;17.196;2022-07-29T05:46:29;0.30;;;0.30;;
61569;SDS011;47462;59.172;17.196;2022-07-29T05:48:54;0.70;;;0.38;;
61569;SDS011;47462;59.172;17.196;2022-07-29T05:51:20;0.32;;;0.22;;
61569;SDS011;47462;59.172;17.196;2022-07-29T05:53:45;1.42;;;0.30;;
61569;SDS011;47462;59.172;17.196;2022-07-29T05:58:36;0.57;;;0.30;;
61569;SDS011;47462;59.172;17.196;2022-07-29T06:01:02;1.58;;;0.40;;
61569;SDS011;47462;59.172;17.196;2022-07-29T06:03:28;0.50;;;0.30;;
61569;SDS011;47462;59.172;17.196;2022-07-29T06:05:54;1.30;;;0.32;;
61569;SDS011;47462;59.172;17.196;2022-07-29T06:08:20;3.20;;;0.43;;
61569;SDS011;47462;59.172;17.196;2022-07-29T06:13:11;1.77;;;0.35;;
61569;SDS011;47462;59.172;17.196;2022-07-29T06:18:02;0.88;;;0.57;;
61569;SDS011;47462;59.172;17.196;2022-07-29T06:22:56;0.40;;;0.30;;
61569;SDS011;47462;59.172;17.196;2022-07-29T06:25:23;0.80;;;0.30;;
61569;SDS011;47462;59.172;17.196;2022-07-29T06:30:13;1.00;;;0.30;;
61569;SDS011;47462;59.172;17.196;2022-07-29T06:35:04;1.60;;;0.40;;
61569;SDS011;47462;59.172;17.196;2022-07-29T06:37:30;0.68;;;0.32;;
61569;SDS011;47462;59.172;17.196;2022-07-29T06:42:43;0.25;;;0.20;;
61569;SDS011;47462;59.172;17.196;2022-07-29T06:45:10;0.20;;;0.20;;
61569;SDS011;47462;59.172;17.196;2022-07-29T06:47:35;0.30;;;0.15;;
61569;SDS011;47462;59.172;17.196;2022-07-29T06:52:26;0.75;;;0.25;;
61569;SDS011;47462;59.172;17.196;2022-07-29T06:57:17;0.63;;;0.30;;
61569;SDS011;47462;59.172;17.196;2022-07-29T07:02:08;0.32;;;0.32;;
61569;SDS011;47462;59.172;17.196;2022-07-29T07:06:58;0.77;;;0.13;;
61569;SDS011;47462;59.172;17.196;2022-07-29T07:09:24;0.68;;;0.28;;
61569;SDS011;47462;59.172;17.196;2022-07-29T07:11:50;1.02;;;0.10;;
61569;SDS011;47462;59.172;17.196;2022-07-29T07:14:15;0.35;;;0.15;;
61569;SDS011;47462;59.172;17.196;2022-07-29T07:16:41;0.22;;;0.20;;
61569;SDS011;47462;59.172;17.196;2022-07-29T07:19:06;0.73;;;0.20;;
61569;SDS011;47462;59.172;17.196;2022-07-29T07:21:32;0.40;;;0.10;;
61569;SDS011;47462;59.172;17.196;2022-07-29T07:23:58;1.38;;;0.25;;
61569;SDS011;47462;59.172;17.196;2022-07-29T07:26:25;0.30;;;0.30;;
61569;SDS011;47462;59.172;17.196;2022-07-29T07:28:50;0.85;;;0.28;;
61569;SDS011;47462;59.172;17.196;2022-07-29T07:31:16;0.32;;;0.10;;
61569;SDS011;47462;59.172;17.196;2022-07-29T07:33:42;0.50;;;0.20;;
61569;SDS011;47462;59.172;17.196;2022-07-29T07:36:07;0.10;;;0.10;;
61569;SDS011;47462;59.172;17.196;2022-07-29T07:38:33;0.70;;;0.20;;
61569;SDS011;47462;59.172;17.196;2022-07-29T07:40:59;0.30;;;0.20;;
61569;SDS011;47462;59.172;17.196;2022-07-29T07:43:25;0.50;;;0.25;;
61569;SDS011;47462;59.172;17.196;2022-07-29T07:45:51;0.40;;;0.22;;
61569;SDS011;47462;59.172;17.196;2022-07-29T07:48:16;0.10;;;0.10;;
61569;SDS011;47462;59.172;17.196;2022-07-29T07:50:42;0.85;;;0.17;;
61569;SDS011;47462;59.172;17.196;2022-07-29T07:53:08;0.20;;;0.20;;
61569;SDS011;47462;59.172;17.196;2022-07-29T07:55:38;1.10;;;0.10;;
61569;SDS011;47462;59.172;17.196;2022-07-29T07:58:05;0.00;;;0.00;;
61569;SDS011;47462;59.172;17.196;2022-07-29T08:00:31;0.10;;;0.10;;
61569;SDS011;47462;59.172;17.196;2022-07-29T08:02:57;0.57;;;0.08;;
61569;SDS011;47462;59.172;17.196;2022-07-29T08:05:23;0.32;;;0.13;;
61569;SDS011;47462;59.172;17.196;2022-07-29T08:07:48;0.10;;;0.10;;
61569;SDS011;47462;59.172;17.196;2022-07-29T08:10:14;0.73;;;0.10;;
61569;SDS011;47462;59.172;17.196;2022-07-29T08:13:10;0.15;;;0.10;;
61569;SDS011;47462;59.172;17.196;2022-07-29T08:15:38;0.17;;;0.00;;
61569;SDS011;47462;59.172;17.196;2022-07-29T08:18:04;0.25;;;0.10;;
61569;SDS011;47462;59.172;17.196;2022-07-29T08:20:29;0.17;;;0.08;;
61569;SDS011;47462;59.172;17.196;2022-07-29T08:22:56;0.43;;;0.20;;
61569;SDS011;47462;59.172;17.196;2022-07-29T08:25:22;0.10;;;0.10;;
61569;SDS011;47462;59.172;17.196;2022-07-29T08:27:47;0.55;;;0.10;;
61569;SDS011;47462;59.172;17.196;2022-07-29T08:30:13;0.20;;;0.20;;
61569;SDS011;47462;59.172;17.196;2022-07-29T08:32:39;0.13;;;0.10;;
61569;SDS011;47462;59.172;17.196;2022-07-29T08:35:05;0.20;;;0.20;;
61569;SDS011;47462;59.172;17.196;2022-07-29T08:37:30;0.25;;;0.17;;
61569;SDS011;47462;59.172;17.196;2022-07-29T08:39:57;0.15;;;0.00;;
61569;SDS011;47462;59.172;17.196;2022-07-29T08:42:22;0.20;;;0.05;;
61569;SDS011;47462;59.172;17.196;2022-07-29T08:44:48;0.30;;;0.05;;
61569;SDS011;47462;59.172;17.196;2022-07-29T08:47:15;0.40;;;0.05;;
61569;SDS011;47462;59.172;17.196;2022-07-29T08:49:48;0.10;;;0.10;;
61569;SDS011;47462;59.172;17.196;2022-07-29T08:52:16;1.73;;;0.00;;
61569;SDS011;47462;59.172;17.196;2022-07-29T08:54:43;0.15;;;0.10;;
61569;SDS011;47462;59.172;17.196;2022-07-29T08:57:10;0.10;;;0.10;;
61569;SDS011;47462;59.172;17.196;2022-07-29T08:59:40;0.22;;;0.08;;
61569;SDS011;47462;59.172;17.196;2022-07-29T09:02:09;0.10;;;0.10;;
61569;SDS011;47462;59.172;17.196;2022-07-29T09:04:44;0.13;;;0.10;;
61569;SDS011;47462;59.172;17.196;2022-07-29T09:07:10;0.35;;;0.10;;
61569;SDS011;47462;59.172;17.196;2022-07-29T09:09:44;0.20;;;0.13;;
61569;SDS011;47462;59.172;17.196;2022-07-29T09:12:10;0.05;;;0.05;;
61569;SDS011;47462;59.172;17.196;2022-07-29T09:14:37;0.15;;;0.15;;
61569;SDS011;47462;59.172;17.196;2022-07-29T09:17:04;0.10;;;0.10;;
61569;SDS011;47462;59.172;17.196;2022-07-29T09:19:33;0.10;;;0.10;;
61569;SDS011;47462;59.172;17.196;2022-07-29T09:22:06;0.20;;;0.10;;
61569;SDS011;47462;59.172;17.196;2022-07-29T09:24:46;0.43;;;0.10;;
61569;SDS011;47462;59.172;17.196;2022-07-29T09:27:22;0.55;;;0.20;;
61569;SDS011;47462;59.172;17.196;2022-07-29T09:32:25;0.20;;;0.10;;
61569;SDS011;47462;59.172;17.196;2022-07-29T09:35:13;0.65;;;0.20;;
61569;SDS011;47462;59.172;17.196;2022-07-29T09:37:46;0.65;;;0.10;;
61569;SDS011;47462;59.172;17.196;2022-07-29T09:40:16;0.10;;;0.10;;
61569;SDS011;47462;59.172;17.196;2022-07-29T09:42:45;0.25;;;0.25;;
61569;SDS011;47462;59.172;17.196;2022-07-29T09:45:12;0.73;;;0.13;;
61569;SDS011;47462;59.172;17.196;2022-07-29T09:47:51;0.13;;;0.10;;
61569;SDS011;47462;59.172;17.196;2022-07-29T09:50:22;0.40;;;0.20;;
61569;SDS011;47462;59.172;17.196;2022-07-29T09:53:00;0.32;;;0.17;;
61569;SDS011;47462;59.172;17.196;2022-07-29T09:55:25;0.10;;;0.10;;
61569;SDS011;47462;59.172;17.196;2022-07-29T09:57:51;0.20;;;0.20;;
61569;SDS011;47462;59.172;17.196;2022-07-29T10:00:19;0.45;;;0.10;;
61569;SDS011;47462;59.172;17.196;2022-07-29T10:02:46;0.98;;;0.10;;
61569;SDS011;47462;59.172;17.196;2022-07-29T10:05:23;0.10;;;0.10;;
61569;SDS011;47462;59.172;17.196;2022-07-29T10:07:55;0.25;;;0.17;;
61569;SDS011;47462;59.172;17.196;2022-07-29T10:10:32;0.47;;;0.08;;
61569;SDS011;47462;59.172;17.196;2022-07-29T10:13:09;0.08;;;0.08;;
61569;SDS011;47462;59.172;17.196;2022-07-29T10:15:37;1.77;;;0.10;;
61569;SDS011;47462;59.172;17.196;2022-07-29T10:18:06;0.68;;;0.28;;
61569;SDS011;47462;59.172;17.196;2022-07-29T10:20:32;2.08;;;0.10;;
61569;SDS011;47462;59.172;17.196;2022-07-29T10:22:59;0.63;;;0.20;;
61569;SDS011;47462;59.172;17.196;2022-07-29T10:25:25;0.00;;;0.00;;
61569;SDS011;47462;59.172;17.196;2022-07-29T10:27:51;0.10;;;0.10;;
61569;SDS011;47462;59.172;17.196;2022-07-29T10:30:19;1.33;;;0.30;;
61569;SDS011;47462;59.172;17.196;2022-07-29T10:35:15;0.10;;;0.10;;
61569;SDS011;47462;59.172;17.196;2022-07-29T10:44:17;0.20;;;0.10;;
61569;SDS011;47462;59.172;17.196;2022-07-29T10:46:45;0.10;;;0.00;;
61569;SDS011;47462;59.172;17.196;2022-07-29T10:49:33;0.20;;;0.05;;
61569;SDS011;47462;59.172;17.196;2022-07-29T10:52:04;0.25;;;0.10;;
61569;SDS011;47462;59.172;17.196;2022-07-29T11:00:27;0.10;;;0.10;;
61569;SDS011;47462;59.172;17.196;2022-07-29T11:02:41;1.55;;;0.00;;
61569;SDS011;47462;59.172;17.196;2022-07-29T11:05:09;0.20;;;0.20;;
61569;SDS011;47462;59.172;17.196;2022-07-29T11:07:37;0.30;;;0.10;;
61569;SDS011;47462;59.172;17.196;2022-07-29T11:15:14;0.40;;;0.20;;
61569;SDS011;47462;59.172;17.196;2022-07-29T11:18:07;0.13;;;0.13;;
61569;SDS011;47462;59.172;17.196;2022-07-29T11:20:32;0.10;;;0.10;;
61569;SDS011;47462;59.172;17.196;2022-07-29T11:23:43;0.32;;;0.10;;
61569;SDS011;47462;59.172;17.196;2022-07-29T11:26:17;0.20;;;0.20;;
61569;SDS011;47462;59.172;17.196;2022-07-29T11:34:35;0.10;;;0.10;;
61569;SDS011;47462;59.172;17.196;2022-07-29T11:39:40;1.45;;;0.20;;
61569;SDS011;47462;59.172;17.196;2022-07-29T11:47:41;0.20;;;0.10;;
61569;SDS011;47462;59.172;17.196;2022-07-29T11:50:13;0.20;;;0.20;;
61569;SDS011;47462;59.172;17.196;2022-07-29T11:52:52;0.85;;;0.20;;
61569;SDS011;47462;59.172;17.196;2022-07-29T11:55:20;0.10;;;0.10;;
61569;SDS011;47462;59.172;17.196;2022-07-29T11:57:50;0.30;;;0.20;;
61569;SDS011;47462;59.172;17.196;2022-07-29T12:00:32;0.30;;;0.20;;
61569;SDS011;47462;59.172;17.196;2022-07-29T12:02:58;0.20;;;0.20;;
61569;SDS011;47462;59.172;17.196;2022-07-29T12:05:37;0.47;;;0.22;;
61569;SDS011;47462;59.172;17.196;2022-07-29T12:08:17;0.10;;;0.10;;
61569;SDS011;47462;59.172;17.196;2022-07-29T12:10:48;0.10;;;0.10;;
61569;SDS011;47462;59.172;17.196;2022-07-29T12:13:17;0.35;;;0.15;;
61569;SDS011;47462;59.172;17.196;2022-07-29T12:15:56;0.88;;;0.20;;
61569;SDS011;47462;59.172;17.196;2022-07-29T12:18:23;0.10;;;0.10;;
61569;SDS011;47462;59.172;17.196;2022-07-29T12:21:00;1.02;;;0.20;;
61569;SDS011;47462;59.172;17.196;2022-07-29T12:23:32;0.10;;;0.10;;
61569;SDS011;47462;59.172;17.196;2022-07-29T12:25:58;0.20;;;0.20;;
61569;SDS011;47462;59.172;17.196;2022-07-29T12:28:24;0.50;;;0.50;;
61569;SDS011;47462;59.172;17.196;2022-07-29T12:30:50;0.10;;;0.10;;
61569;SDS011;47462;59.172;17.196;2022-07-29T12:33:24;3.42;;;0.20;;
61569;SDS011;47462;59.172;17.196;2022-07-29T12:36:02;0.10;;;0.10;;
61569;SDS011;47462;59.172;17.196;2022-07-29T12:38:28;0.15;;;0.10;;
61569;SDS011;47462;59.172;17.196;2022-07-29T12:40:57;0.30;;;0.30;;
61569;SDS011;47462;59.172;17.196;2022-07-29T12:43:24;0.15;;;0.15;;
61569;SDS011;47462;59.172;17.196;2022-07-29T12:45:51;0.20;;;0.10;;
61569;SDS011;47462;59.172;17.196;2022-07-29T12:48:43;0.13;;;0.13;;
61569;SDS011;47462;59.172;17.196;2022-07-29T12:51:07;0.75;;;0.22;;
61569;SDS011;47462;59.172;17.196;2022-07-29T12:53:35;0.40;;;0.10;;
61569;SDS011;47462;59.172;17.196;2022-07-29T12:56:02;0.13;;;0.13;;
61569;SDS011;47462;59.172;17.196;2022-07-29T13:01:01;1.85;;;0.20;;
